sensor_id;sensor_type;location;lat;lon;timestamp;P1;durP1;ratioP1;P2;durP2;ratioP2
44048;SDS011;29717;47.028;15.470;2023-03-31T00:01:36;7.38;;;5.90;;
44048;SDS011;29717;47.028;15.470;2023-03-31T00:04:08;6.43;;;5.35;;
44048;SDS011;29717;47.028;15.470;2023-03-31T00:06:39;6.57;;;5.35;;
44048;SDS011;29717;47.028;15.470;2023-03-31T00:09:07;10.95;;;5.72;;
44048;SDS011;29717;47.028;15.470;2023-03-31T00:11:35;6.07;;;5.45;;
44048;SDS011;29717;47.028;15.470;2023-03-31T00:14:03;9.00;;;5.57;;
44048;SDS011;29717;47.028;15.470;2023-03-31T00:16:31;10.57;;;5.57;;
44048;SDS011;29717;47.028;15.470;2023-03-31T00:18:58;8.73;;;5.50;;
44048;SDS011;29717;47.028;15.470;2023-03-31T00:21:26;8.50;;;6.38;;
44048;SDS011;29717;47.028;15.470;2023-03-31T00:23:58;7.40;;;6.10;;
44048;SDS011;29717;47.028;15.470;2023-03-31T00:26:25;8.05;;;6.07;;
44048;SDS011;29717;47.028;15.470;2023-03-31T00:28:52;6.88;;;6.03;;
44048;SDS011;29717;47.028;15.470;2023-03-31T00:31:21;6.60;;;5.78;;
44048;SDS011;29717;47.028;15.470;2023-03-31T00:33:48;9.35;;;5.97;;
44048;SDS011;29717;47.028;15.470;2023-03-31T00:36:15;7.77;;;6.10;;
44048;SDS011;29717;47.028;15.470;2023-03-31T00:38:46;10.83;;;6.03;;
44048;SDS011;29717;47.028;15.470;2023-03-31T00:41:13;8.85;;;6.85;;
44048;SDS011;29717;47.028;15.470;2023-03-31T00:43:40;9.98;;;7.00;;
44048;SDS011;29717;47.028;15.470;2023-03-31T00:46:12;12.70;;;6.63;;
44048;SDS011;29717;47.028;15.470;2023-03-31T00:48:44;9.15;;;6.78;;
44048;SDS011;29717;47.028;15.470;2023-03-31T00:51:12;12.80;;;7.03;;
44048;SDS011;29717;47.028;15.470;2023-03-31T00:53:40;10.88;;;7.78;;
44048;SDS011;29717;47.028;15.470;2023-03-31T00:56:08;11.00;;;7.40;;
44048;SDS011;29717;47.028;15.470;2023-03-31T00:58:37;11.27;;;8.37;;
44048;SDS011;29717;47.028;15.470;2023-03-31T01:01:07;11.87;;;8.20;;
44048;SDS011;29717;47.028;15.470;2023-03-31T01:03:38;11.23;;;7.73;;
44048;SDS011;29717;47.028;15.470;2023-03-31T01:06:08;11.10;;;7.60;;
44048;SDS011;29717;47.028;15.470;2023-03-31T01:08:35;11.77;;;8.33;;
44048;SDS011;29717;47.028;15.470;2023-03-31T01:11:05;10.57;;;8.30;;
44048;SDS011;29717;47.028;15.470;2023-03-31T01:13:33;12.37;;;8.83;;
44048;SDS011;29717;47.028;15.470;2023-03-31T01:16:00;12.50;;;9.23;;
44048;SDS011;29717;47.028;15.470;2023-03-31T01:18:28;11.60;;;8.83;;
44048;SDS011;29717;47.028;15.470;2023-03-31T01:21:23;11.80;;;9.13;;
44048;SDS011;29717;47.028;15.470;2023-03-31T01:24:02;11.07;;;8.73;;
44048;SDS011;29717;47.028;15.470;2023-03-31T01:26:43;10.47;;;8.20;;
44048;SDS011;29717;47.028;15.470;2023-03-31T01:29:17;11.57;;;8.93;;
44048;SDS011;29717;47.028;15.470;2023-03-31T01:31:56;10.57;;;8.20;;
44048;SDS011;29717;47.028;15.470;2023-03-31T01:34:43;9.27;;;7.43;;
44048;SDS011;29717;47.028;15.470;2023-03-31T01:40:00;10.63;;;7.78;;
44048;SDS011;29717;47.028;15.470;2023-03-31T01:42:33;9.80;;;8.17;;
44048;SDS011;29717;47.028;15.470;2023-03-31T01:45:03;11.03;;;7.50;;
44048;SDS011;29717;47.028;15.470;2023-03-31T01:47:34;10.63;;;7.63;;
44048;SDS011;29717;47.028;15.470;2023-03-31T01:50:06;9.20;;;7.33;;
44048;SDS011;29717;47.028;15.470;2023-03-31T01:52:36;7.87;;;7.07;;
44048;SDS011;29717;47.028;15.470;2023-03-31T01:55:07;8.33;;;7.00;;
44048;SDS011;29717;47.028;15.470;2023-03-31T01:57:35;7.87;;;6.77;;
44048;SDS011;29717;47.028;15.470;2023-03-31T02:00:03;7.20;;;6.50;;
44048;SDS011;29717;47.028;15.470;2023-03-31T02:02:35;8.93;;;6.73;;
44048;SDS011;29717;47.028;15.470;2023-03-31T02:05:05;9.70;;;6.87;;
44048;SDS011;29717;47.028;15.470;2023-03-31T02:07:34;7.20;;;6.37;;
44048;SDS011;29717;47.028;15.470;2023-03-31T02:10:03;9.27;;;6.50;;
44048;SDS011;29717;47.028;15.470;2023-03-31T02:12:32;9.43;;;7.40;;
44048;SDS011;29717;47.028;15.470;2023-03-31T02:15:00;7.63;;;6.43;;
44048;SDS011;29717;47.028;15.470;2023-03-31T02:17:29;8.03;;;6.60;;
44048;SDS011;29717;47.028;15.470;2023-03-31T02:19:57;8.40;;;7.50;;
44048;SDS011;29717;47.028;15.470;2023-03-31T02:22:25;11.80;;;7.57;;
44048;SDS011;29717;47.028;15.470;2023-03-31T02:24:53;8.97;;;7.93;;
44048;SDS011;29717;47.028;15.470;2023-03-31T02:27:21;10.17;;;7.23;;
44048;SDS011;29717;47.028;15.470;2023-03-31T02:29:50;8.67;;;6.57;;
44048;SDS011;29717;47.028;15.470;2023-03-31T02:32:19;7.93;;;6.87;;
44048;SDS011;29717;47.028;15.470;2023-03-31T02:34:47;14.40;;;7.43;;
44048;SDS011;29717;47.028;15.470;2023-03-31T02:37:15;14.67;;;7.50;;
44048;SDS011;29717;47.028;15.470;2023-03-31T02:39:43;9.30;;;7.30;;
44048;SDS011;29717;47.028;15.470;2023-03-31T02:42:10;10.40;;;6.80;;
44048;SDS011;29717;47.028;15.470;2023-03-31T02:44:37;8.37;;;6.67;;
44048;SDS011;29717;47.028;15.470;2023-03-31T02:47:06;8.77;;;6.93;;
44048;SDS011;29717;47.028;15.470;2023-03-31T02:49:34;8.77;;;6.50;;
44048;SDS011;29717;47.028;15.470;2023-03-31T02:52:05;11.00;;;6.93;;
44048;SDS011;29717;47.028;15.470;2023-03-31T02:57:29;10.40;;;7.30;;
44048;SDS011;29717;47.028;15.470;2023-03-31T03:00:00;9.57;;;6.57;;
44048;SDS011;29717;47.028;15.470;2023-03-31T03:02:35;9.03;;;6.77;;
44048;SDS011;29717;47.028;15.470;2023-03-31T03:05:15;11.80;;;6.90;;
44048;SDS011;29717;47.028;15.470;2023-03-31T03:07:46;9.53;;;7.20;;
44048;SDS011;29717;47.028;15.470;2023-03-31T03:10:16;9.83;;;7.40;;
44048;SDS011;29717;47.028;15.470;2023-03-31T03:12:47;10.63;;;6.47;;
44048;SDS011;29717;47.028;15.470;2023-03-31T03:15:20;11.13;;;6.67;;
44048;SDS011;29717;47.028;15.470;2023-03-31T03:17:50;10.97;;;6.30;;
44048;SDS011;29717;47.028;15.470;2023-03-31T03:20:19;14.17;;;7.27;;
44048;SDS011;29717;47.028;15.470;2023-03-31T03:22:46;9.30;;;6.70;;
44048;SDS011;29717;47.028;15.470;2023-03-31T03:25:13;10.23;;;6.50;;
44048;SDS011;29717;47.028;15.470;2023-03-31T03:27:41;13.00;;;7.10;;
44048;SDS011;29717;47.028;15.470;2023-03-31T03:30:09;7.67;;;6.40;;
44048;SDS011;29717;47.028;15.470;2023-03-31T03:32:36;8.10;;;6.37;;
44048;SDS011;29717;47.028;15.470;2023-03-31T03:35:05;11.37;;;6.77;;
44048;SDS011;29717;47.028;15.470;2023-03-31T03:37:33;12.57;;;6.77;;
44048;SDS011;29717;47.028;15.470;2023-03-31T03:40:01;8.67;;;6.33;;
44048;SDS011;29717;47.028;15.470;2023-03-31T03:42:30;8.83;;;7.03;;
44048;SDS011;29717;47.028;15.470;2023-03-31T03:44:57;11.90;;;6.90;;
44048;SDS011;29717;47.028;15.470;2023-03-31T03:47:23;10.00;;;6.80;;
44048;SDS011;29717;47.028;15.470;2023-03-31T03:49:50;11.50;;;7.30;;
44048;SDS011;29717;47.028;15.470;2023-03-31T03:52:19;8.20;;;6.77;;
44048;SDS011;29717;47.028;15.470;2023-03-31T03:54:46;10.33;;;7.00;;
44048;SDS011;29717;47.028;15.470;2023-03-31T03:57:13;9.67;;;6.53;;
44048;SDS011;29717;47.028;15.470;2023-03-31T03:59:39;12.13;;;7.83;;
44048;SDS011;29717;47.028;15.470;2023-03-31T04:02:06;9.20;;;7.80;;
44048;SDS011;29717;47.028;15.470;2023-03-31T04:04:33;11.20;;;7.83;;
44048;SDS011;29717;47.028;15.470;2023-03-31T04:07:00;11.47;;;7.07;;
44048;SDS011;29717;47.028;15.470;2023-03-31T04:09:28;19.87;;;8.10;;
44048;SDS011;29717;47.028;15.470;2023-03-31T04:11:55;10.53;;;7.33;;
44048;SDS011;29717;47.028;15.470;2023-03-31T04:14:22;10.40;;;6.70;;
44048;SDS011;29717;47.028;15.470;2023-03-31T04:16:50;8.80;;;6.37;;
44048;SDS011;29717;47.028;15.470;2023-03-31T04:19:17;8.67;;;7.17;;
44048;SDS011;29717;47.028;15.470;2023-03-31T04:21:46;13.47;;;7.73;;
44048;SDS011;29717;47.028;15.470;2023-03-31T04:24:15;11.93;;;7.80;;
44048;SDS011;29717;47.028;15.470;2023-03-31T04:26:47;10.60;;;8.00;;
44048;SDS011;29717;47.028;15.470;2023-03-31T04:29:15;12.80;;;7.60;;
44048;SDS011;29717;47.028;15.470;2023-03-31T04:31:45;7.87;;;6.93;;
44048;SDS011;29717;47.028;15.470;2023-03-31T04:34:12;11.33;;;8.40;;
44048;SDS011;29717;47.028;15.470;2023-03-31T04:36:39;11.13;;;7.63;;
44048;SDS011;29717;47.028;15.470;2023-03-31T04:39:11;11.87;;;8.10;;
44048;SDS011;29717;47.028;15.470;2023-03-31T04:41:38;9.57;;;8.03;;
44048;SDS011;29717;47.028;15.470;2023-03-31T04:44:06;17.50;;;12.10;;
44048;SDS011;29717;47.028;15.470;2023-03-31T04:46:34;26.87;;;18.37;;
44048;SDS011;29717;47.028;15.470;2023-03-31T04:49:01;23.10;;;14.07;;
44048;SDS011;29717;47.028;15.470;2023-03-31T04:51:30;16.70;;;12.10;;
44048;SDS011;29717;47.028;15.470;2023-03-31T04:53:56;12.63;;;9.77;;
44048;SDS011;29717;47.028;15.470;2023-03-31T04:56:23;15.37;;;8.67;;
44048;SDS011;29717;47.028;15.470;2023-03-31T04:58:50;13.17;;;9.77;;
44048;SDS011;29717;47.028;15.470;2023-03-31T05:01:19;13.23;;;8.53;;
44048;SDS011;29717;47.028;15.470;2023-03-31T05:03:46;12.43;;;8.13;;
44048;SDS011;29717;47.028;15.470;2023-03-31T05:06:13;12.23;;;7.50;;
44048;SDS011;29717;47.028;15.470;2023-03-31T05:08:41;10.97;;;8.00;;
44048;SDS011;29717;47.028;15.470;2023-03-31T05:11:07;14.27;;;7.20;;
44048;SDS011;29717;47.028;15.470;2023-03-31T05:13:35;15.40;;;7.83;;
44048;SDS011;29717;47.028;15.470;2023-03-31T05:16:05;10.47;;;7.90;;
44048;SDS011;29717;47.028;15.470;2023-03-31T05:18:33;14.20;;;8.23;;
44048;SDS011;29717;47.028;15.470;2023-03-31T05:21:09;11.03;;;7.43;;
44048;SDS011;29717;47.028;15.470;2023-03-31T05:23:38;9.67;;;6.93;;
44048;SDS011;29717;47.028;15.470;2023-03-31T05:26:05;11.33;;;7.07;;
44048;SDS011;29717;47.028;15.470;2023-03-31T05:28:32;11.57;;;7.03;;
44048;SDS011;29717;47.028;15.470;2023-03-31T05:30:59;12.33;;;7.03;;
44048;SDS011;29717;47.028;15.470;2023-03-31T05:33:26;9.90;;;7.20;;
44048;SDS011;29717;47.028;15.470;2023-03-31T05:35:55;13.60;;;7.60;;
44048;SDS011;29717;47.028;15.470;2023-03-31T05:38:24;13.67;;;7.53;;
44048;SDS011;29717;47.028;15.470;2023-03-31T05:40:53;13.90;;;7.27;;
44048;SDS011;29717;47.028;15.470;2023-03-31T05:43:20;11.10;;;7.13;;
44048;SDS011;29717;47.028;15.470;2023-03-31T05:45:47;10.50;;;7.23;;
44048;SDS011;29717;47.028;15.470;2023-03-31T05:48:14;9.40;;;7.10;;
44048;SDS011;29717;47.028;15.470;2023-03-31T05:50:41;8.73;;;6.50;;
44048;SDS011;29717;47.028;15.470;2023-03-31T05:53:09;13.30;;;7.00;;
44048;SDS011;29717;47.028;15.470;2023-03-31T05:55:38;10.37;;;6.87;;
44048;SDS011;29717;47.028;15.470;2023-03-31T05:58:05;19.13;;;7.43;;
44048;SDS011;29717;47.028;15.470;2023-03-31T06:00:32;14.60;;;6.90;;
44048;SDS011;29717;47.028;15.470;2023-03-31T06:03:00;9.67;;;6.10;;
44048;SDS011;29717;47.028;15.470;2023-03-31T06:05:27;13.77;;;6.83;;
44048;SDS011;29717;47.028;15.470;2023-03-31T06:07:55;11.97;;;6.57;;
44048;SDS011;29717;47.028;15.470;2023-03-31T06:10:23;11.50;;;6.43;;
44048;SDS011;29717;47.028;15.470;2023-03-31T06:12:50;9.70;;;7.30;;
44048;SDS011;29717;47.028;15.470;2023-03-31T06:15:17;10.97;;;6.10;;
44048;SDS011;29717;47.028;15.470;2023-03-31T06:17:43;8.27;;;6.67;;
44048;SDS011;29717;47.028;15.470;2023-03-31T06:20:10;6.97;;;6.30;;
44048;SDS011;29717;47.028;15.470;2023-03-31T06:22:37;6.80;;;6.03;;
44048;SDS011;29717;47.028;15.470;2023-03-31T06:25:04;10.43;;;7.10;;
44048;SDS011;29717;47.028;15.470;2023-03-31T06:27:33;7.83;;;6.40;;
44048;SDS011;29717;47.028;15.470;2023-03-31T06:29:59;15.37;;;7.13;;
44048;SDS011;29717;47.028;15.470;2023-03-31T06:32:26;12.83;;;6.97;;
44048;SDS011;29717;47.028;15.470;2023-03-31T06:34:53;12.77;;;6.97;;
44048;SDS011;29717;47.028;15.470;2023-03-31T06:37:20;10.47;;;7.00;;
44048;SDS011;29717;47.028;15.470;2023-03-31T06:39:48;11.67;;;6.50;;
44048;SDS011;29717;47.028;15.470;2023-03-31T06:42:15;16.23;;;7.23;;
44048;SDS011;29717;47.028;15.470;2023-03-31T06:44:44;7.50;;;6.23;;
44048;SDS011;29717;47.028;15.470;2023-03-31T06:47:10;9.50;;;5.97;;
44048;SDS011;29717;47.028;15.470;2023-03-31T06:49:37;13.33;;;6.73;;
44048;SDS011;29717;47.028;15.470;2023-03-31T06:52:04;13.40;;;7.10;;
44048;SDS011;29717;47.028;15.470;2023-03-31T06:54:31;11.07;;;7.47;;
44048;SDS011;29717;47.028;15.470;2023-03-31T06:56:59;19.35;;;7.30;;
44048;SDS011;29717;47.028;15.470;2023-03-31T06:59:25;14.48;;;7.32;;
44048;SDS011;29717;47.028;15.470;2023-03-31T07:01:53;10.00;;;6.93;;
44048;SDS011;29717;47.028;15.470;2023-03-31T07:04:20;14.50;;;6.72;;
44048;SDS011;29717;47.028;15.470;2023-03-31T07:06:47;10.50;;;7.25;;
44048;SDS011;29717;47.028;15.470;2023-03-31T07:09:14;10.95;;;7.32;;
44048;SDS011;29717;47.028;15.470;2023-03-31T07:11:43;11.52;;;7.40;;
44048;SDS011;29717;47.028;15.470;2023-03-31T07:14:09;11.20;;;7.03;;
44048;SDS011;29717;47.028;15.470;2023-03-31T07:16:36;15.05;;;6.43;;
44048;SDS011;29717;47.028;15.470;2023-03-31T07:19:05;7.90;;;5.78;;
44048;SDS011;29717;47.028;15.470;2023-03-31T07:21:32;9.25;;;5.18;;
44048;SDS011;29717;47.028;15.470;2023-03-31T07:23:59;8.65;;;5.20;;
44048;SDS011;29717;47.028;15.470;2023-03-31T07:26:26;6.57;;;5.32;;
44048;SDS011;29717;47.028;15.470;2023-03-31T07:28:53;7.80;;;5.13;;
44048;SDS011;29717;47.028;15.470;2023-03-31T07:31:21;10.20;;;6.85;;
44048;SDS011;29717;47.028;15.470;2023-03-31T07:33:48;9.55;;;6.32;;
44048;SDS011;29717;47.028;15.470;2023-03-31T07:36:16;9.20;;;6.63;;
44048;SDS011;29717;47.028;15.470;2023-03-31T07:38:44;14.13;;;7.90;;
44048;SDS011;29717;47.028;15.470;2023-03-31T07:41:13;13.43;;;7.25;;
44048;SDS011;29717;47.028;15.470;2023-03-31T07:43:41;8.88;;;6.07;;
44048;SDS011;29717;47.028;15.470;2023-03-31T07:46:12;6.43;;;4.47;;
44048;SDS011;29717;47.028;15.470;2023-03-31T07:48:40;13.27;;;5.63;;
44048;SDS011;29717;47.028;15.470;2023-03-31T07:51:08;12.07;;;5.45;;
44048;SDS011;29717;47.028;15.470;2023-03-31T07:53:36;7.30;;;3.90;;
44048;SDS011;29717;47.028;15.470;2023-03-31T07:56:06;4.80;;;3.60;;
44048;SDS011;29717;47.028;15.470;2023-03-31T07:58:33;13.75;;;4.32;;
44048;SDS011;29717;47.028;15.470;2023-03-31T08:01:01;5.63;;;3.28;;
44048;SDS011;29717;47.028;15.470;2023-03-31T08:03:28;5.43;;;2.88;;
44048;SDS011;29717;47.028;15.470;2023-03-31T08:05:56;5.93;;;3.33;;
44048;SDS011;29717;47.028;15.470;2023-03-31T08:08:23;6.50;;;3.72;;
44048;SDS011;29717;47.028;15.470;2023-03-31T08:10:51;4.30;;;3.85;;
44048;SDS011;29717;47.028;15.470;2023-03-31T08:13:18;6.47;;;4.07;;
44048;SDS011;29717;47.028;15.470;2023-03-31T08:15:45;5.55;;;3.67;;
44048;SDS011;29717;47.028;15.470;2023-03-31T08:18:12;5.63;;;3.75;;
44048;SDS011;29717;47.028;15.470;2023-03-31T08:20:39;7.65;;;3.55;;
44048;SDS011;29717;47.028;15.470;2023-03-31T08:23:05;4.50;;;3.50;;
44048;SDS011;29717;47.028;15.470;2023-03-31T08:25:35;9.45;;;3.97;;
44048;SDS011;29717;47.028;15.470;2023-03-31T08:28:04;9.00;;;4.15;;
44048;SDS011;29717;47.028;15.470;2023-03-31T08:30:31;5.78;;;4.15;;
44048;SDS011;29717;47.028;15.470;2023-03-31T08:32:58;7.68;;;3.88;;
44048;SDS011;29717;47.028;15.470;2023-03-31T08:35:25;9.32;;;3.63;;
44048;SDS011;29717;47.028;15.470;2023-03-31T08:37:52;6.20;;;3.50;;
44048;SDS011;29717;47.028;15.470;2023-03-31T08:40:19;6.35;;;3.75;;
44048;SDS011;29717;47.028;15.470;2023-03-31T08:42:48;7.38;;;3.65;;
44048;SDS011;29717;47.028;15.470;2023-03-31T08:45:18;5.13;;;3.45;;
44048;SDS011;29717;47.028;15.470;2023-03-31T08:47:46;7.55;;;4.00;;
44048;SDS011;29717;47.028;15.470;2023-03-31T08:52:51;5.18;;;3.58;;
44048;SDS011;29717;47.028;15.470;2023-03-31T08:55:21;5.78;;;3.40;;
44048;SDS011;29717;47.028;15.470;2023-03-31T08:57:51;5.78;;;3.70;;
44048;SDS011;29717;47.028;15.470;2023-03-31T09:00:21;6.20;;;3.20;;
44048;SDS011;29717;47.028;15.470;2023-03-31T09:02:50;3.75;;;2.75;;
44048;SDS011;29717;47.028;15.470;2023-03-31T09:08:10;3.28;;;2.42;;
44048;SDS011;29717;47.028;15.470;2023-03-31T09:10:40;3.38;;;2.80;;
44048;SDS011;29717;47.028;15.470;2023-03-31T09:13:22;3.97;;;3.00;;
44048;SDS011;29717;47.028;15.470;2023-03-31T09:15:53;8.40;;;2.90;;
44048;SDS011;29717;47.028;15.470;2023-03-31T09:18:24;2.25;;;1.80;;
44048;SDS011;29717;47.028;15.470;2023-03-31T09:20:54;3.03;;;1.90;;
44048;SDS011;29717;47.028;15.470;2023-03-31T09:23:24;2.22;;;1.90;;
44048;SDS011;29717;47.028;15.470;2023-03-31T09:25:52;2.08;;;1.60;;
44048;SDS011;29717;47.028;15.470;2023-03-31T09:28:29;2.35;;;1.73;;
44048;SDS011;29717;47.028;15.470;2023-03-31T09:30:58;4.03;;;2.08;;
44048;SDS011;29717;47.028;15.470;2023-03-31T09:33:26;2.55;;;1.88;;
44048;SDS011;29717;47.028;15.470;2023-03-31T09:35:56;1.90;;;1.80;;
44048;SDS011;29717;47.028;15.470;2023-03-31T09:38:23;2.88;;;1.98;;
44048;SDS011;29717;47.028;15.470;2023-03-31T09:40:53;5.40;;;2.17;;
44048;SDS011;29717;47.028;15.470;2023-03-31T09:43:21;4.85;;;1.65;;
44048;SDS011;29717;47.028;15.470;2023-03-31T09:45:49;5.05;;;1.90;;
44048;SDS011;29717;47.028;15.470;2023-03-31T09:48:18;4.05;;;2.05;;
44048;SDS011;29717;47.028;15.470;2023-03-31T09:50:46;3.97;;;1.70;;
44048;SDS011;29717;47.028;15.470;2023-03-31T09:53:15;3.15;;;1.92;;
44048;SDS011;29717;47.028;15.470;2023-03-31T09:55:45;3.13;;;2.25;;
44048;SDS011;29717;47.028;15.470;2023-03-31T09:58:15;2.65;;;2.00;;
44048;SDS011;29717;47.028;15.470;2023-03-31T10:00:43;2.75;;;2.10;;
44048;SDS011;29717;47.028;15.470;2023-03-31T10:03:23;3.53;;;1.92;;
44048;SDS011;29717;47.028;15.470;2023-03-31T10:05:53;3.53;;;2.20;;
44048;SDS011;29717;47.028;15.470;2023-03-31T10:08:25;2.42;;;2.05;;
44048;SDS011;29717;47.028;15.470;2023-03-31T10:10:53;3.85;;;2.38;;
44048;SDS011;29717;47.028;15.470;2023-03-31T10:13:22;3.88;;;2.10;;
44048;SDS011;29717;47.028;15.470;2023-03-31T10:15:51;3.53;;;2.10;;
44048;SDS011;29717;47.028;15.470;2023-03-31T10:18:18;3.47;;;2.00;;
44048;SDS011;29717;47.028;15.470;2023-03-31T10:20:49;6.75;;;2.22;;
44048;SDS011;29717;47.028;15.470;2023-03-31T10:23:28;1.83;;;1.63;;
44048;SDS011;29717;47.028;15.470;2023-03-31T10:25:55;1.75;;;1.60;;
44048;SDS011;29717;47.028;15.470;2023-03-31T10:28:22;1.90;;;1.60;;
44048;SDS011;29717;47.028;15.470;2023-03-31T10:30:50;2.85;;;1.88;;
44048;SDS011;29717;47.028;15.470;2023-03-31T10:33:19;3.97;;;1.83;;
44048;SDS011;29717;47.028;15.470;2023-03-31T10:36:06;3.47;;;2.10;;
44048;SDS011;29717;47.028;15.470;2023-03-31T10:38:52;4.53;;;2.30;;
44048;SDS011;29717;47.028;15.470;2023-03-31T10:41:22;3.45;;;2.15;;
44048;SDS011;29717;47.028;15.470;2023-03-31T10:43:59;2.38;;;2.17;;
44048;SDS011;29717;47.028;15.470;2023-03-31T10:46:46;4.78;;;2.30;;
44048;SDS011;29717;47.028;15.470;2023-03-31T10:49:24;5.45;;;2.67;;
44048;SDS011;29717;47.028;15.470;2023-03-31T10:51:53;2.97;;;2.58;;
44048;SDS011;29717;47.028;15.470;2023-03-31T10:54:21;4.72;;;3.10;;
44048;SDS011;29717;47.028;15.470;2023-03-31T10:56:50;6.05;;;2.67;;
44048;SDS011;29717;47.028;15.470;2023-03-31T10:59:36;3.78;;;2.35;;
44048;SDS011;29717;47.028;15.470;2023-03-31T11:02:12;6.70;;;2.78;;
44048;SDS011;29717;47.028;15.470;2023-03-31T11:04:47;4.22;;;2.60;;
44048;SDS011;29717;47.028;15.470;2023-03-31T11:07:30;3.63;;;2.42;;
44048;SDS011;29717;47.028;15.470;2023-03-31T11:12:47;3.08;;;2.72;;
44048;SDS011;29717;47.028;15.470;2023-03-31T11:15:19;4.07;;;3.05;;
44048;SDS011;29717;47.028;15.470;2023-03-31T11:17:52;6.07;;;2.53;;
44048;SDS011;29717;47.028;15.470;2023-03-31T11:20:50;4.20;;;1.92;;
44048;SDS011;29717;47.028;15.470;2023-03-31T11:23:28;3.20;;;2.13;;
44048;SDS011;29717;47.028;15.470;2023-03-31T11:26:06;2.85;;;2.17;;
44048;SDS011;29717;47.028;15.470;2023-03-31T11:31:31;3.08;;;1.85;;
44048;SDS011;29717;47.028;15.470;2023-03-31T11:34:08;5.50;;;1.58;;
44048;SDS011;29717;47.028;15.470;2023-03-31T11:36:45;6.07;;;1.95;;
44048;SDS011;29717;47.028;15.470;2023-03-31T11:39:29;4.10;;;1.60;;
44048;SDS011;29717;47.028;15.470;2023-03-31T11:42:01;3.15;;;1.70;;
44048;SDS011;29717;47.028;15.470;2023-03-31T11:44:31;6.00;;;1.85;;
44048;SDS011;29717;47.028;15.470;2023-03-31T11:47:01;4.70;;;1.52;;
44048;SDS011;29717;47.028;15.470;2023-03-31T11:49:31;3.08;;;1.35;;
44048;SDS011;29717;47.028;15.470;2023-03-31T11:52:04;1.75;;;1.40;;
44048;SDS011;29717;47.028;15.470;2023-03-31T11:54:36;1.83;;;1.10;;
44048;SDS011;29717;47.028;15.470;2023-03-31T11:57:06;2.70;;;1.30;;
44048;SDS011;29717;47.028;15.470;2023-03-31T11:59:35;2.17;;;1.42;;
44048;SDS011;29717;47.028;15.470;2023-03-31T12:02:03;3.15;;;1.50;;
44048;SDS011;29717;47.028;15.470;2023-03-31T12:04:36;4.20;;;1.48;;
44048;SDS011;29717;47.028;15.470;2023-03-31T12:07:07;4.63;;;1.40;;
44048;SDS011;29717;47.028;15.470;2023-03-31T12:09:42;2.70;;;1.85;;
44048;SDS011;29717;47.028;15.470;2023-03-31T12:12:14;3.80;;;1.67;;
44048;SDS011;29717;47.028;15.470;2023-03-31T12:14:45;6.32;;;2.10;;
44048;SDS011;29717;47.028;15.470;2023-03-31T12:17:15;3.47;;;1.98;;
44048;SDS011;29717;47.028;15.470;2023-03-31T12:19:44;2.65;;;1.60;;
44048;SDS011;29717;47.028;15.470;2023-03-31T12:22:13;3.03;;;1.92;;
44048;SDS011;29717;47.028;15.470;2023-03-31T12:24:44;2.47;;;1.60;;
44048;SDS011;29717;47.028;15.470;2023-03-31T12:27:13;3.53;;;1.90;;
44048;SDS011;29717;47.028;15.470;2023-03-31T12:29:42;4.03;;;1.67;;
44048;SDS011;29717;47.028;15.470;2023-03-31T12:32:11;2.35;;;1.55;;
44048;SDS011;29717;47.028;15.470;2023-03-31T12:34:42;3.63;;;1.73;;
44048;SDS011;29717;47.028;15.470;2023-03-31T12:37:26;4.65;;;1.67;;
44048;SDS011;29717;47.028;15.470;2023-03-31T12:39:59;2.35;;;1.70;;
44048;SDS011;29717;47.028;15.470;2023-03-31T12:42:34;4.57;;;1.50;;
44048;SDS011;29717;47.028;15.470;2023-03-31T12:45:06;3.50;;;1.42;;
44048;SDS011;29717;47.028;15.470;2023-03-31T12:47:44;3.58;;;1.70;;
44048;SDS011;29717;47.028;15.470;2023-03-31T12:50:17;2.75;;;1.38;;
44048;SDS011;29717;47.028;15.470;2023-03-31T12:52:54;2.25;;;1.30;;
44048;SDS011;29717;47.028;15.470;2023-03-31T12:55:28;2.70;;;1.85;;
44048;SDS011;29717;47.028;15.470;2023-03-31T13:00:41;1.52;;;1.30;;
44048;SDS011;29717;47.028;15.470;2023-03-31T13:06:11;2.17;;;1.30;;
44048;SDS011;29717;47.028;15.470;2023-03-31T13:09:02;1.67;;;1.42;;
44048;SDS011;29717;47.028;15.470;2023-03-31T13:11:47;3.28;;;1.45;;
44048;SDS011;29717;47.028;15.470;2023-03-31T13:14:16;2.42;;;1.40;;
44048;SDS011;29717;47.028;15.470;2023-03-31T13:16:44;1.80;;;1.30;;
44048;SDS011;29717;47.028;15.470;2023-03-31T13:22:05;3.67;;;1.50;;
44048;SDS011;29717;47.028;15.470;2023-03-31T13:24:32;2.65;;;1.30;;
44048;SDS011;29717;47.028;15.470;2023-03-31T13:27:26;1.95;;;1.58;;
44048;SDS011;29717;47.028;15.470;2023-03-31T13:29:54;7.70;;;1.95;;
44048;SDS011;29717;47.028;15.470;2023-03-31T13:32:22;15.73;;;2.28;;
44048;SDS011;29717;47.028;15.470;2023-03-31T13:34:57;8.02;;;1.67;;
44048;SDS011;29717;47.028;15.470;2023-03-31T13:37:38;4.63;;;1.70;;
44048;SDS011;29717;47.028;15.470;2023-03-31T13:48:21;3.42;;;1.63;;
44048;SDS011;29717;47.028;15.470;2023-03-31T13:50:53;3.88;;;1.50;;
44048;SDS011;29717;47.028;15.470;2023-03-31T13:53:26;7.57;;;1.90;;
44048;SDS011;29717;47.028;15.470;2023-03-31T13:55:59;3.40;;;1.83;;
44048;SDS011;29717;47.028;15.470;2023-03-31T13:58:43;6.60;;;1.88;;
44048;SDS011;29717;47.028;15.470;2023-03-31T14:01:20;4.25;;;1.70;;
44048;SDS011;29717;47.028;15.470;2023-03-31T14:03:59;4.32;;;1.70;;
44048;SDS011;29717;47.028;15.470;2023-03-31T14:06:29;2.83;;;1.75;;
44048;SDS011;29717;47.028;15.470;2023-03-31T14:08:59;3.05;;;1.50;;
44048;SDS011;29717;47.028;15.470;2023-03-31T14:11:28;1.83;;;1.40;;
44048;SDS011;29717;47.028;15.470;2023-03-31T14:13:58;5.03;;;1.77;;
44048;SDS011;29717;47.028;15.470;2023-03-31T14:16:25;1.60;;;1.40;;
44048;SDS011;29717;47.028;15.470;2023-03-31T14:18:54;5.43;;;1.90;;
44048;SDS011;29717;47.028;15.470;2023-03-31T14:21:27;2.38;;;1.73;;
44048;SDS011;29717;47.028;15.470;2023-03-31T14:23:58;2.97;;;1.80;;
44048;SDS011;29717;47.028;15.470;2023-03-31T14:26:34;2.83;;;1.88;;
44048;SDS011;29717;47.028;15.470;2023-03-31T14:29:04;2.10;;;1.55;;
44048;SDS011;29717;47.028;15.470;2023-03-31T14:31:37;2.35;;;1.80;;
44048;SDS011;29717;47.028;15.470;2023-03-31T14:36:53;3.17;;;1.85;;
44048;SDS011;29717;47.028;15.470;2023-03-31T14:39:25;3.72;;;2.13;;
44048;SDS011;29717;47.028;15.470;2023-03-31T14:41:53;2.05;;;1.85;;
44048;SDS011;29717;47.028;15.470;2023-03-31T14:44:21;3.85;;;1.90;;
44048;SDS011;29717;47.028;15.470;2023-03-31T14:46:48;4.90;;;2.15;;
44048;SDS011;29717;47.028;15.470;2023-03-31T14:49:18;19.27;;;3.00;;
44048;SDS011;29717;47.028;15.470;2023-03-31T14:51:46;5.88;;;2.00;;
44048;SDS011;29717;47.028;15.470;2023-03-31T14:54:16;5.07;;;3.33;;
44048;SDS011;29717;47.028;15.470;2023-03-31T14:56:44;4.18;;;1.85;;
44048;SDS011;29717;47.028;15.470;2023-03-31T14:59:13;3.88;;;2.25;;
44048;SDS011;29717;47.028;15.470;2023-03-31T15:01:44;3.85;;;2.00;;
44048;SDS011;29717;47.028;15.470;2023-03-31T15:04:12;3.33;;;1.63;;
44048;SDS011;29717;47.028;15.470;2023-03-31T15:06:40;2.42;;;1.70;;
44048;SDS011;29717;47.028;15.470;2023-03-31T15:09:11;3.40;;;1.70;;
44048;SDS011;29717;47.028;15.470;2023-03-31T15:11:42;2.97;;;2.05;;
44048;SDS011;29717;47.028;15.470;2023-03-31T15:14:09;7.78;;;1.92;;
44048;SDS011;29717;47.028;15.470;2023-03-31T15:16:37;3.42;;;1.80;;
44048;SDS011;29717;47.028;15.470;2023-03-31T15:19:10;1.70;;;1.50;;
44048;SDS011;29717;47.028;15.470;2023-03-31T15:21:38;3.42;;;2.17;;
44048;SDS011;29717;47.028;15.470;2023-03-31T15:24:05;2.55;;;1.73;;